PILOTS ONLINE: 686    ATC ONLINE: 150

KGKY

Arlington Municipal Airport

Location

City Arlington
Country  United States
Latitude 32° 39' 50" N
Longitude 97° 5' 39" W
Elevation 628 ft
Type Small Airport

Map

Weather

METAR
2014/09/01 17:53
KGKY 011753Z 16010G19KT 10SM FEW038 33/22 A2991 RMK AO2 SLP118 T03280217 10333 20250 58002
TAF
2014/09/01 18:21
TAF KGKY 011720Z 0118/0218 18018KT P6SM SCT050 
     FM021100 16015KT P6SM BKN015 
     FM021500 18015KT P6SM SCT025

Runways

16/34 6080 ft / 100 ft

Outbound flights

Callsign Flying to Pilot ATD/STD ETA Aircraft

Inbound flights

Callsign Flying from Pilot ATD ETA Aircraft